Time;durP1;ratioP1;P1;durP2;ratioP2;P2;SDS_P1;SDS_P2;PMS_P1;PMS_P2;Temp;Humidity;BMP_temperature;BMP_pressure;BME280_temperature;BME280_humidity;BME280_pressure;Samples;Min_cycle;Max_cycle;Signal;HPM_P1;HPM_P2
2022/04/12 00:00:43;;;;;;;40.53;15.30;;;;;;;10.21;55.25;100998.56;5047115;28;20029;-29
2022/04/12 00:03:09;;;;;;;34.38;15.07;;;;;;;10.23;55.38;100993.84;5044445;28;20061;-31
2022/04/12 00:05:36;;;;;;;29.88;14.95;;;;;;;10.16;55.71;100999.06;5050450;28;20032;-30
2022/04/12 00:08:02;;;;;;;32.63;14.23;;;;;;;10.13;56.02;100996.75;5032974;28;20114;-29
2022/04/12 00:10:28;;;;;;;36.72;14.52;;;;;;;10.07;55.93;101000.16;5031727;28;20041;-31
2022/04/12 00:12:55;;;;;;;31.00;14.73;;;;;;;10.02;56.26;100994.44;5031844;28;20048;-29
2022/04/12 00:15:20;;;;;;;39.80;15.48;;;;;;;9.98;56.18;100999.34;5050320;28;20029;-30
2022/04/12 00:20:30;;;;;;;36.83;15.32;;;;;;;10.05;56.41;100986.03;5036977;28;20094;-31
2022/04/12 00:22:56;;;;;;;36.30;15.63;;;;;;;9.98;56.61;100995.78;5039501;28;20024;-30
2022/04/12 00:25:24;;;;;;;37.47;15.95;;;;;;;9.94;56.85;100994.50;5050115;28;20033;-28
2022/04/12 00:27:51;;;;;;;40.47;15.43;;;;;;;9.97;56.86;101003.03;5050893;28;20257;-31
2022/04/12 00:30:16;;;;;;;31.45;15.07;;;;;;;9.94;56.69;100997.19;5049685;28;20468;-30
2022/04/12 00:32:42;;;;;;;42.92;16.75;;;;;;;9.85;57.46;100991.84;5044909;28;20070;-30
2022/04/12 00:35:08;;;;;;;30.55;14.30;;;;;;;9.83;57.13;100999.22;5050904;28;20361;-31
2022/04/12 00:37:34;;;;;;;39.50;15.70;;;;;;;9.78;57.95;100993.53;5050633;28;20237;-30
2022/04/12 00:39:59;;;;;;;36.28;15.43;;;;;;;9.76;57.71;100992.84;5035379;28;20029;-31
2022/04/12 00:42:25;;;;;;;33.80;15.00;;;;;;;9.71;57.89;100997.06;5037166;28;20037;-30
2022/04/12 00:44:50;;;;;;;37.30;15.52;;;;;;;9.68;57.85;100987.50;5015950;28;20476;-31
2022/04/12 00:47:16;;;;;;;36.25;16.38;;;;;;;9.70;57.94;100988.19;5050499;28;20040;-32
2022/04/12 00:49:41;;;;;;;31.30;15.07;;;;;;;9.71;58.37;100979.09;5054807;28;20040;-28
2022/04/12 00:52:07;;;;;;;36.67;14.75;;;;;;;9.76;58.05;100981.28;5041109;28;20543;-30
2022/04/12 00:54:34;;;;;;;36.53;15.60;;;;;;;9.79;58.11;100973.69;5050863;28;20076;-30
2022/04/12 00:56:59;;;;;;;38.33;14.63;;;;;;;9.74;58.58;100973.41;5052571;28;20043;-31
2022/04/12 00:59:26;;;;;;;37.55;15.13;;;;;;;9.77;57.87;100967.69;5053156;28;20036;-28
2022/04/12 01:01:51;;;;;;;38.10;14.45;;;;;;;9.71;58.24;100981.78;5052395;28;20044;-31
2022/04/12 01:04:17;;;;;;;33.65;13.95;;;;;;;9.64;58.24;100980.81;5054550;28;20033;-29
2022/04/12 01:06:42;;;;;;;34.60;14.65;;;;;;;9.62;58.30;100974.78;5054872;28;20040;-29
2022/04/12 01:09:09;;;;;;;35.72;14.70;;;;;;;9.70;58.06;100961.31;5035646;28;20091;-30
2022/04/12 01:11:35;;;;;;;33.78;14.60;;;;;;;9.66;58.12;100959.97;5053396;28;20356;-29
2022/04/12 01:14:01;;;;;;;31.63;13.85;;;;;;;9.66;57.99;100959.97;5053140;28;20060;-30
2022/04/12 01:16:27;;;;;;;32.40;14.18;;;;;;;9.59;58.16;100964.38;5043602;28;20472;-30
2022/04/12 01:18:52;;;;;;;33.03;14.00;;;;;;;9.49;58.45;100969.94;5054460;28;20025;-29
2022/04/12 01:21:17;;;;;;;37.63;14.90;;;;;;;9.45;58.65;100974.81;5044901;28;20029;-30
2022/04/12 01:24:05;;;;;;;29.30;13.55;;;;;;;9.45;58.92;100972.13;5050626;28;20108;-30
2022/04/12 01:26:30;;;;;;;36.83;14.93;;;;;;;9.46;58.69;100972.97;5036972;28;20041;-30
2022/04/12 01:28:56;;;;;;;29.77;13.32;;;;;;;9.43;58.91;100968.78;5042949;28;20032;-31
2022/04/12 01:31:23;;;;;;;33.00;14.02;;;;;;;9.42;58.64;100972.44;5045831;28;20022;-28
2022/04/12 01:33:49;;;;;;;38.20;14.27;;;;;;;9.44;58.38;100962.38;5041698;28;20411;-29
2022/04/12 01:36:14;;;;;;;30.83;13.90;;;;;;;9.48;58.42;100957.53;5006742;28;20069;-31
2022/04/12 01:38:39;;;;;;;34.55;14.15;;;;;;;9.41;58.73;100951.97;5047348;28;20119;-30
2022/04/12 01:41:05;;;;;;;32.15;14.38;;;;;;;9.32;59.26;100950.34;5052353;28;20100;-30
2022/04/12 01:43:30;;;;;;;31.20;14.40;;;;;;;9.25;59.44;100952.03;5052118;28;20025;-30
2022/04/12 01:45:55;;;;;;;28.02;14.02;;;;;;;9.28;59.07;100943.63;5042966;28;20076;-30
2022/04/12 01:48:21;;;;;;;34.58;13.85;;;;;;;9.24;59.06;100950.31;5035313;28;20431;-30
2022/04/12 01:50:46;;;;;;;32.42;14.32;;;;;;;9.16;59.24;100943.16;5033609;28;20029;-28
2022/04/12 01:53:12;;;;;;;28.10;13.25;;;;;;;9.19;59.42;100936.59;5053769;28;20047;-30
2022/04/12 01:55:37;;;;;;;30.27;13.25;;;;;;;9.20;59.43;100939.09;5052708;28;20406;-31
2022/04/12 01:58:02;;;;;;;33.00;14.10;;;;;;;9.15;59.81;100940.63;5053901;28;20166;-30
2022/04/12 02:00:29;;;;;;;31.17;13.40;;;;;;;9.13;59.70;100939.94;5052978;28;20518;-28
2022/04/12 02:02:55;;;;;;;31.60;13.10;;;;;;;9.07;59.99;100946.00;5051805;28;20065;-30
2022/04/12 02:07:45;;;;;;;28.60;14.32;;;;;;;8.89;60.68;100949.69;5109949;22;20056;-77
2022/04/12 02:10:11;;;;;;;37.85;13.65;;;;;;;8.93;60.21;100942.16;5076451;28;20031;-81
2022/04/12 02:12:36;;;;;;;31.88;14.05;;;;;;;8.90;60.40;100937.97;5040838;28;20032;-76
2022/04/12 02:15:03;;;;;;;29.70;13.15;;;;;;;8.93;60.69;100931.44;5042074;28;20025;-77
2022/04/12 02:17:28;;;;;;;25.45;13.10;;;;;;;9.01;60.19;100928.75;5084687;28;20047;-77
2022/04/12 02:19:54;;;;;;;31.92;13.40;;;;;;;9.07;59.65;100922.69;5069799;28;20044;-77
2022/04/12 02:22:19;;;;;;;32.65;13.45;;;;;;;8.99;59.66;100920.00;5066748;28;20119;-78
2022/04/12 02:24:44;;;;;;;33.42;13.70;;;;;;;9.00;59.75;100913.63;5068962;28;20029;-77
2022/04/12 02:27:10;;;;;;;30.75;13.95;;;;;;;8.90;60.34;100905.78;5069590;28;20029;-76
2022/04/12 02:29:35;;;;;;;31.63;13.20;;;;;;;8.89;60.71;100901.38;5065432;28;20028;-77
2022/04/12 02:32:00;;;;;;;32.42;13.35;;;;;;;8.80;60.96;100907.78;5077816;28;20058;-78
2022/04/12 02:34:26;;;;;;;37.83;15.73;;;;;;;8.71;60.71;100911.47;5063152;28;20021;-78
2022/04/12 02:36:51;;;;;;;28.08;12.88;;;;;;;8.66;61.25;100913.81;5060828;28;20669;-75
2022/04/12 02:39:16;;;;;;;31.67;14.32;;;;;;;8.63;61.21;100912.31;5058520;28;20460;-77
2022/04/12 02:41:42;;;;;;;29.05;13.18;;;;;;;8.67;60.91;100902.91;5078576;28;20037;-76
2022/04/12 02:44:07;;;;;;;29.13;13.45;;;;;;;8.74;60.97;100901.25;5085246;28;20025;-75
2022/04/12 02:46:32;;;;;;;34.03;13.57;;;;;;;8.78;60.81;100896.38;5072462;28;20043;-77
2022/04/12 02:48:58;;;;;;;33.22;13.68;;;;;;;8.71;61.07;100887.31;5062144;28;20084;-79
2022/04/12 02:51:23;;;;;;;34.97;13.70;;;;;;;8.73;61.30;100888.00;5073546;28;20032;-77
2022/04/12 02:53:49;;;;;;;30.92;14.45;;;;;;;8.62;61.40;100886.50;5078195;28;20021;-78
2022/04/12 02:56:14;;;;;;;26.83;13.85;;;;;;;8.57;61.38;100894.19;5064539;28;20021;-78
2022/04/12 02:58:40;;;;;;;31.02;13.43;;;;;;;8.51;61.85;100894.88;5088272;28;20756;-78
2022/04/12 03:01:05;;;;;;;33.08;13.02;;;;;;;8.52;61.58;100894.69;5089518;28;20100;-80
2022/04/12 03:03:31;;;;;;;31.58;13.30;;;;;;;8.44;62.11;100900.06;5090513;28;20025;-78
2022/04/12 03:05:56;;;;;;;30.23;12.90;;;;;;;8.36;62.20;100894.66;5076752;28;20106;-76
2022/04/12 03:08:22;;;;;;;34.20;15.00;;;;;;;8.40;62.50;100890.69;5038544;28;20024;-77
2022/04/12 03:10:48;;;;;;;34.33;13.55;;;;;;;8.41;62.44;100894.19;5049859;28;20433;-75
2022/04/12 03:13:13;;;;;;;34.22;14.02;;;;;;;8.41;62.27;100884.31;5039792;28;20043;-76
2022/04/12 03:15:38;;;;;;;27.75;12.90;;;;;;;8.46;61.98;100887.31;5052681;28;20432;-76
2022/04/12 03:18:04;;;;;;;36.00;13.48;;;;;;;8.38;62.63;100884.63;5057467;28;20037;-77
2022/04/12 03:20:29;;;;;;;31.77;13.63;;;;;;;8.42;62.58;100879.78;5059230;28;20432;-77
2022/04/12 03:22:55;;;;;;;27.98;13.30;;;;;;;8.40;62.41;100882.63;5046029;28;20036;-76
2022/04/12 03:25:20;;;;;;;33.60;12.50;;;;;;;8.41;62.44;100889.66;5044254;28;20048;-76
2022/04/12 03:27:46;;;;;;;33.22;13.25;;;;;;;8.39;62.56;100874.72;5037475;28;20131;-76
2022/04/12 03:30:11;;;;;;;29.33;12.63;;;;;;;8.40;62.07;100871.06;5037828;28;20087;-77
2022/04/12 03:32:37;;;;;;;24.50;12.57;;;;;;;8.35;62.29;100871.53;5037513;28;20029;-76
2022/04/12 03:35:02;;;;;;;25.95;12.43;;;;;;;8.31;62.52;100878.22;5037259;28;20056;-76
2022/04/12 03:37:28;;;;;;;27.67;12.55;;;;;;;8.26;63.00;100869.84;5021618;28;20033;-78
2022/04/12 03:39:55;;;;;;;31.48;12.65;;;;;;;8.30;62.64;100876.56;5046622;28;20491;-78
2022/04/12 03:42:21;;;;;;;24.60;12.57;;;;;;;8.26;62.78;100885.94;5062144;28;20389;-78
2022/04/12 03:44:46;;;;;;;27.33;12.02;;;;;;;8.23;62.76;100891.63;5061134;28;20112;-77
2022/04/12 03:47:11;;;;;;;25.60;12.45;;;;;;;8.20;62.85;100903.53;5055465;28;20056;-77
2022/04/12 03:49:37;;;;;;;33.25;13.65;;;;;;;8.19;63.25;100917.06;5057233;28;20037;-76
2022/04/12 03:52:02;;;;;;;23.42;11.80;;;;;;;8.10;63.28;100919.75;5054668;28;20075;-77
2022/04/12 03:54:28;;;;;;;27.73;11.80;;;;;;;8.09;63.23;100912.72;5044607;28;20116;-77
2022/04/12 03:56:57;;;;;;;32.83;12.05;;;;;;;8.06;63.38;100917.56;5045045;28;20029;-77
2022/04/12 03:59:23;;;;;;;26.23;12.30;;;;;;;8.06;63.91;100918.41;5054945;28;20025;-77
2022/04/12 04:01:49;;;;;;;22.38;11.70;;;;;;;8.03;63.84;100915.19;5049102;28;20358;-78
2022/04/12 04:04:15;;;;;;;33.63;11.95;;;;;;;8.10;63.79;100898.31;5023975;28;20087;-77
2022/04/12 04:06:41;;;;;;;25.63;12.38;;;;;;;8.12;64.00;100884.75;5048774;28;20057;-78
2022/04/12 04:09:06;;;;;;;26.48;12.05;;;;;;;8.17;63.75;100881.56;5068361;28;20033;-77
2022/04/12 04:11:32;;;;;;;28.75;12.50;;;;;;;8.23;63.91;100862.97;5071012;28;20053;-79
2022/04/12 04:14:00;;;;;;;25.80;11.95;;;;;;;8.22;63.32;100863.97;5074065;28;20043;-77
2022/04/12 04:16:26;;;;;;;25.08;12.05;;;;;;;8.19;63.58;100858.09;5073943;28;20112;-77
2022/04/12 04:18:51;;;;;;;31.58;12.23;;;;;;;8.12;63.86;100857.94;5066221;28;20388;-80
2022/04/12 04:21:16;;;;;;;26.98;11.40;;;;;;;8.13;64.02;100859.59;5063910;28;20477;-78
2022/04/12 04:23:42;;;;;;;23.73;11.00;;;;;;;8.17;63.75;100860.13;5062526;28;20317;-78
2022/04/12 04:26:08;;;;;;;30.65;11.70;;;;;;;8.20;63.51;100859.78;5046071;28;20064;-78
2022/04/12 04:28:34;;;;;;;32.95;11.50;;;;;;;8.12;63.97;100864.13;5062519;28;20025;-77
2022/04/12 04:30:59;;;;;;;22.88;11.55;;;;;;;8.11;64.13;100845.56;5061009;28;20025;-77
2022/04/12 04:33:25;;;;;;;25.90;11.15;;;;;;;8.11;63.93;100846.38;5061567;28;20080;-77
2022/04/12 04:35:51;;;;;;;28.13;11.65;;;;;;;8.04;64.10;100844.53;5058943;28;20089;-76
2022/04/12 04:38:16;;;;;;;25.55;11.05;;;;;;;7.98;63.93;100848.72;5055687;28;20251;-78
2022/04/12 04:40:42;;;;;;;25.60;11.18;;;;;;;7.97;64.13;100846.19;5062708;28;20023;-78
2022/04/12 04:43:08;;;;;;;35.05;11.48;;;;;;;7.91;64.02;100855.72;5062695;28;20053;-77
2022/04/12 04:45:34;;;;;;;22.75;10.75;;;;;;;7.82;64.39;100864.72;5064970;28;20045;-78
2022/04/12 04:48:01;;;;;;;24.80;10.85;;;;;;;7.80;64.13;100856.03;5062640;28;20032;-78
2022/04/12 04:50:29;;;;;;;23.58;10.30;;;;;;;7.90;64.20;100857.56;5064408;28;20108;-77
2022/04/12 04:52:56;;;;;;;26.67;11.35;;;;;;;7.93;64.11;100860.94;5060166;28;20025;-78
2022/04/12 04:55:22;;;;;;;25.10;10.77;;;;;;;7.93;64.05;100851.03;5060955;28;20558;-76
2022/04/12 04:57:48;;;;;;;19.80;9.95;;;;;;;7.97;63.86;100859.59;5044810;28;20100;-76
2022/04/12 05:00:15;;;;;;;23.55;10.75;;;;;;;8.03;63.90;100858.91;5065779;28;20044;-78
2022/04/12 05:02:51;;;;;;;20.60;10.18;;;;;;;8.01;64.05;100859.09;5067175;28;20041;-78
2022/04/12 05:05:17;;;;;;;25.35;11.15;;;;;;;8.01;63.96;100867.13;5066903;28;20029;-77
2022/04/12 05:07:45;;;;;;;18.90;10.10;;;;;;;8.01;63.86;100871.66;5072905;28;20071;-77
2022/04/12 05:10:13;;;;;;;;;;;;;;;7.99;64.31;100879.84;5070069;28;20026;-77
2022/04/12 05:12:39;;;;;;;29.75;11.50;;;;;;;7.96;64.51;100880.19;5071194;28;19927;-77
2022/04/12 05:15:05;;;;;;;30.83;10.80;;;;;;;7.92;64.33;100884.19;5068269;28;20037;-78
2022/04/12 05:17:30;;;;;;;39.25;10.85;;;;;;;7.88;64.48;100882.84;5068210;28;20040;-77
2022/04/12 05:19:58;;;;;;;37.45;11.48;;;;;;;7.92;64.72;100889.53;5071381;28;20523;-76
2022/04/12 05:22:24;;;;;;;;;;;;;;;7.90;64.97;100889.72;5061767;28;20507;-75
2022/04/12 05:24:49;;;;;;;35.00;9.68;;;;;;;7.88;64.30;100890.88;5070895;28;19913;-77
2022/04/12 05:27:15;;;;;;;32.10;9.95;;;;;;;7.90;64.58;100891.56;5064309;28;20017;-77
2022/04/12 05:29:41;;;;;;;23.85;10.55;;;;;;;7.93;64.86;100885.03;5060375;28;20048;-76
2022/04/12 05:32:09;;;;;;;39.58;10.98;;;;;;;7.97;64.81;100872.97;5051705;28;20048;-76
2022/04/12 05:34:35;;;;;;;33.50;10.75;;;;;;;8.08;64.45;100872.66;5061384;28;20025;-75
2022/04/12 05:37:01;;;;;;;36.60;10.85;;;;;;;8.40;64.35;100879.97;5063286;28;20056;-74
2022/04/12 05:39:26;;;;;;;41.85;11.73;;;;;;;8.76;63.45;100879.59;5046530;28;20033;-74
2022/04/12 05:41:51;;;;;;;37.72;10.98;;;;;;;9.26;61.78;100875.81;5063968;28;20052;-73
2022/04/12 05:44:17;;;;;;;41.50;12.30;;;;;;;9.81;60.26;100872.22;5066406;28;20025;-75
2022/04/12 05:46:42;;;;;;;42.33;10.55;;;;;;;10.44;58.34;100861.41;5073816;28;20086;-77
2022/04/12 05:49:07;;;;;;;27.48;11.10;;;;;;;10.92;56.51;100864.69;5069112;28;20044;-75
2022/04/12 05:51:33;;;;;;;31.65;10.23;;;;;;;11.43;55.19;100860.25;5067459;28;20023;-78
2022/04/12 05:53:58;;;;;;;28.17;9.82;;;;;;;11.93;52.97;100862.31;5076556;28;20061;-77
2022/04/12 05:56:23;;;;;;;26.80;9.98;;;;;;;12.20;52.41;100868.84;5053802;28;20021;-77
2022/04/12 05:58:52;;;;;;;45.13;11.18;;;;;;;12.85;50.38;100862.38;5069691;28;20050;-77
2022/04/12 06:01:17;;;;;;;45.47;11.05;;;;;;;13.05;49.49;100862.50;5070948;28;20646;-75
2022/04/12 06:03:42;;;;;;;37.28;9.48;;;;;;;13.07;49.39;100860.44;5053169;28;20076;-76
2022/04/12 06:06:08;;;;;;;28.70;8.98;;;;;;;12.78;49.37;100866.06;5065758;28;20118;-76
2022/04/12 06:08:34;;;;;;;20.92;9.27;;;;;;;13.08;48.70;100874.78;5044377;28;20033;-75
2022/04/12 06:10:59;;;;;;;21.10;9.52;;;;;;;13.09;48.41;100884.56;5046902;28;20040;-75
2022/04/12 06:13:25;;;;;;;17.00;9.35;;;;;;;13.05;48.46;100884.09;5068009;28;20041;-77
2022/04/12 06:15:50;;;;;;;28.33;9.43;;;;;;;13.23;47.99;100885.47;5065293;28;20025;-77
2022/04/12 06:18:15;;;;;;;26.38;9.32;;;;;;;13.68;47.42;100884.09;5063603;28;20100;-77
2022/04/12 06:20:41;;;;;;;16.20;8.98;;;;;;;13.60;46.98;100886.97;5062511;28;20050;-76
2022/04/12 06:23:06;;;;;;;25.02;9.80;;;;;;;13.34;48.15;100883.06;5061008;28;20029;-77
2022/04/12 06:25:31;;;;;;;17.30;8.48;;;;;;;13.32;48.02;100885.16;5065702;28;20120;-76
2022/04/12 06:27:57;;;;;;;24.08;10.23;;;;;;;13.16;48.35;100885.44;5067168;28;20072;-74
2022/04/12 06:30:27;;;;;;;25.15;9.10;;;;;;;13.10;48.63;100875.41;5046515;28;20088;-77
2022/04/12 06:32:53;;;;;;;20.02;9.75;;;;;;;12.66;49.47;100876.53;5065231;28;20041;-75
2022/04/12 06:35:19;;;;;;;21.17;9.43;;;;;;;12.59;50.37;100862.16;5036466;28;20053;-73
2022/04/12 06:37:52;;;;;;;20.30;8.77;;;;;;;12.29;50.70;100865.81;5039493;28;20110;-75
2022/04/12 06:40:19;;;;;;;17.90;9.20;;;;;;;12.45;50.93;100861.19;5048895;28;20481;-74
2022/04/12 06:42:45;;;;;;;16.92;9.45;;;;;;;12.34;50.29;100856.31;5048600;28;20029;-74
2022/04/12 06:45:13;;;;;;;22.48;9.95;;;;;;;12.31;51.14;100860.25;5051344;28;20424;-75
2022/04/12 06:47:39;;;;;;;18.55;9.50;;;;;;;12.21;51.03;100865.13;5052468;28;20035;-75
2022/04/12 06:50:06;;;;;;;20.67;9.38;;;;;;;12.47;50.81;100865.38;5056531;28;20367;-75
2022/04/12 06:52:34;;;;;;;13.68;8.77;;;;;;;13.12;49.38;100867.97;5048116;28;20036;-75
2022/04/12 06:54:59;;;;;;;18.40;9.30;;;;;;;13.47;48.06;100862.56;5052235;28;20025;-74
2022/04/12 06:57:25;;;;;;;17.15;8.95;;;;;;;14.07;46.71;100860.09;5056693;28;20040;-75
2022/04/12 06:59:53;;;;;;;18.95;9.30;;;;;;;14.30;46.41;100848.88;5052618;28;20116;-77
2022/04/12 07:02:18;;;;;;;21.88;9.20;;;;;;;14.20;45.78;100855.53;5051933;28;20075;-76
2022/04/12 07:04:44;;;;;;;20.42;9.15;;;;;;;14.16;45.78;100859.66;5050902;28;20473;-76
2022/04/12 07:07:09;;;;;;;18.63;8.93;;;;;;;14.43;45.74;100865.97;5032337;28;20045;-75
2022/04/12 07:09:34;;;;;;;17.95;9.60;;;;;;;14.80;45.25;100865.63;5050733;28;20397;-76
2022/04/12 07:12:01;;;;;;;18.58;10.18;;;;;;;14.43;45.24;100865.16;5045691;28;20021;-76
2022/04/12 07:14:28;;;;;;;21.55;9.10;;;;;;;14.48;44.97;100873.47;5031572;28;20159;-75
2022/04/12 07:16:54;;;;;;;17.90;9.68;;;;;;;14.52;45.24;100877.44;5030504;28;20018;-74
2022/04/12 07:19:19;;;;;;;26.40;9.50;;;;;;;14.97;44.43;100877.69;5039754;28;20044;-75
2022/04/12 07:21:46;;;;;;;18.30;8.68;;;;;;;15.12;44.05;100878.28;5051618;28;20088;-75
2022/04/12 07:24:11;;;;;;;19.30;8.77;;;;;;;15.04;43.66;100878.50;5052213;28;20036;-77
2022/04/12 07:26:36;;;;;;;14.98;9.05;;;;;;;15.05;43.97;100869.31;5051900;28;20226;-78
2022/04/12 07:29:02;;;;;;;17.83;8.95;;;;;;;15.32;43.62;100878.25;5051035;28;20442;-77
2022/04/12 07:31:28;;;;;;;20.10;9.93;;;;;;;15.27;43.40;100866.34;5049870;28;20043;-76
2022/04/12 07:33:53;;;;;;;18.00;9.10;;;;;;;15.12;44.04;100859.31;5049550;28;20037;-76
2022/04/12 07:36:19;;;;;;;16.88;9.60;;;;;;;15.83;43.01;100854.94;5036367;28;20156;-77
2022/04/12 07:38:44;;;;;;;18.35;9.90;;;;;;;16.21;42.67;100848.66;5034996;28;20025;-74
2022/04/12 07:41:10;;;;;;;17.95;9.23;;;;;;;16.64;40.88;100862.34;5051395;28;20074;-76
2022/04/12 07:43:36;;;;;;;18.73;9.90;;;;;;;16.98;40.84;100856.63;5035531;28;20461;-74
2022/04/12 07:46:02;;;;;;;17.90;9.25;;;;;;;17.58;39.94;100851.38;5051058;28;20071;-75
2022/04/12 07:48:27;;;;;;;23.63;9.55;;;;;;;17.32;39.64;100847.94;5054002;28;20041;-74
2022/04/12 07:50:52;;;;;;;17.58;9.90;;;;;;;17.10;39.66;100855.66;5052577;28;20484;-75
2022/04/12 07:53:18;;;;;;;20.48;9.23;;;;;;;16.79;40.37;100858.47;5054085;28;20090;-76
2022/04/12 07:55:43;;;;;;;21.65;10.45;;;;;;;16.60;40.92;100858.41;5051880;28;20023;-75
2022/04/12 07:58:08;;;;;;;18.60;9.43;;;;;;;16.91;40.51;100855.88;5040724;28;20029;-77
2022/04/12 08:00:34;;;;;;;18.63;9.52;;;;;;;17.10;40.16;100860.28;5052959;28;20029;-74
2022/04/12 08:02:59;;;;;;;20.75;10.10;;;;;;;16.55;41.76;100868.25;5051677;28;20022;-74
2022/04/12 08:05:24;;;;;;;19.80;9.43;;;;;;;16.43;41.31;100874.41;5053365;28;20405;-74
2022/04/12 08:07:50;;;;;;;19.77;9.23;;;;;;;15.41;43.91;100883.44;5050539;28;20045;-74
2022/04/12 08:10:18;;;;;;;18.02;10.05;;;;;;;15.15;44.85;100877.03;5049507;28;20053;-74
2022/04/12 08:12:45;;;;;;;18.70;9.73;;;;;;;15.04;45.58;100896.66;5039296;28;20397;-76
2022/04/12 08:15:12;;;;;;;25.17;9.73;;;;;;;15.06;45.43;100892.69;5046608;28;20072;-74
2022/04/12 08:17:37;;;;;;;20.97;9.13;;;;;;;15.89;43.95;100886.63;5047378;28;20076;-73
2022/04/12 08:20:05;;;;;;;19.20;9.73;;;;;;;16.30;42.30;100882.66;5052884;28;20746;-76
2022/04/12 08:22:31;;;;;;;20.65;8.73;;;;;;;16.91;42.09;100880.34;5040558;28;20021;-74
2022/04/12 08:24:56;;;;;;;23.83;9.38;;;;;;;17.05;41.27;100876.44;5036909;28;20051;-74
2022/04/12 08:27:22;;;;;;;17.80;8.73;;;;;;;18.32;38.84;100878.47;5050934;28;20044;-75
2022/04/12 08:29:47;;;;;;;15.88;9.27;;;;;;;18.22;38.66;100868.16;5051001;28;20021;-75
2022/04/12 08:32:13;;;;;;;24.80;9.55;;;;;;;18.38;38.61;100877.56;5047866;28;20511;-75
2022/04/12 08:34:39;;;;;;;17.40;9.20;;;;;;;18.68;37.74;100876.66;5043011;28;20061;-75
2022/04/12 08:37:05;;;;;;;22.67;9.80;;;;;;;19.32;36.61;100877.66;5044743;28;20124;-75
2022/04/12 08:39:31;;;;;;;19.00;9.40;;;;;;;19.12;36.99;100883.50;5050297;28;20040;-75
2022/04/12 08:41:58;;;;;;;21.70;8.80;;;;;;;18.83;37.49;100866.19;5047197;28;20175;-76
2022/04/12 08:44:24;;;;;;;15.55;9.23;;;;;;;18.57;37.46;100853.78;5038484;28;20032;-75
2022/04/12 08:46:49;;;;;;;19.38;8.80;;;;;;;19.75;36.55;100854.59;5045509;28;20025;-75
2022/04/12 08:49:15;;;;;;;21.67;9.30;;;;;;;20.30;34.98;100856.72;5049025;28;20468;-75
2022/04/12 08:51:40;;;;;;;15.27;8.55;;;;;;;20.05;35.14;100845.31;5050176;28;20029;-76
2022/04/12 08:54:06;;;;;;;14.68;8.60;;;;;;;20.31;35.14;100839.22;5034274;28;20384;-76
2022/04/12 08:56:32;;;;;;;21.25;8.55;;;;;;;21.30;34.38;100836.91;5033911;28;20100;-74
2022/04/12 08:58:57;;;;;;;22.42;9.40;;;;;;;21.34;33.17;100833.44;5048862;28;20036;-75
2022/04/12 09:01:22;;;;;;;23.70;9.32;;;;;;;20.39;35.01;100822.41;5049821;28;20047;-74
2022/04/12 09:03:48;;;;;;;20.95;8.48;;;;;;;21.42;33.77;100813.03;5050841;28;20029;-74
2022/04/12 09:06:13;;;;;;;17.95;9.27;;;;;;;21.30;33.69;100820.50;5051493;28;20059;-74
2022/04/12 09:08:39;;;;;;;25.85;9.23;;;;;;;21.55;33.13;100829.06;5051920;28;20082;-76
2022/04/12 09:11:07;;;;;;;23.08;8.88;;;;;;;20.68;34.07;100819.63;5035154;28;20065;-75
2022/04/12 09:13:32;;;;;;;;;;;;;;;20.32;35.10;100816.28;5034349;28;20021;-75
2022/04/12 09:15:58;;;;;;;18.17;8.95;;;;;;;20.20;35.61;100811.97;5033405;28;19935;-74
2022/04/12 09:18:40;;;;;;;28.85;10.45;;;;;;;20.60;34.53;100807.22;5049541;28;20044;-76
2022/04/12 09:21:12;;;;;;;17.98;9.00;;;;;;;20.39;34.80;100816.94;5046204;28;20044;-76
2022/04/12 09:23:41;;;;;;;17.30;8.68;;;;;;;20.72;34.37;100814.47;5052163;28;20049;-76
2022/04/12 09:26:06;;;;;;;20.38;8.98;;;;;;;21.11;34.18;100817.25;5053778;28;20408;-75
2022/04/12 09:28:41;;;;;;;26.25;7.90;;;;;;;21.44;34.89;100810.88;5053354;28;20040;-75
2022/04/12 09:31:11;;;;;;;22.30;8.70;;;;;;;22.19;32.57;100811.16;5056507;28;20032;-75
2022/04/12 09:33:37;;;;;;;19.63;9.30;;;;;;;22.92;32.20;100820.50;5057424;28;20063;-76
2022/04/12 09:36:02;;;;;;;26.15;10.10;;;;;;;22.99;31.76;100812.88;5048821;28;20096;-75
2022/04/12 09:38:35;;;;;;;18.50;9.02;;;;;;;22.81;31.92;100818.78;5058836;28;20048;-77
2022/04/12 09:41:12;;;;;;;19.35;9.20;;;;;;;23.64;30.67;100827.22;5061589;28;20036;-77
2022/04/12 09:43:40;;;;;;;;;;;;;;;22.62;31.70;100814.78;5058856;28;20105;-77
2022/04/12 09:46:07;;;;;;;19.40;8.95;;;;;;;22.44;32.74;100808.63;5059086;28;20391;-77
2022/04/12 09:48:35;;;;;;;26.63;9.93;;;;;;;23.20;31.76;100818.50;5056043;28;20020;-78
2022/04/12 09:51:01;;;;;;;37.20;9.93;;;;;;;22.94;31.86;100809.25;5059167;28;20039;-76
2022/04/12 09:53:40;;;;;;;26.00;9.82;;;;;;;23.17;32.67;100791.56;5058329;28;20028;-75
2022/04/12 09:56:26;;;;;;;32.47;9.90;;;;;;;22.41;32.89;100791.84;5060130;28;20031;-78
2022/04/12 09:58:55;;;;;;;21.23;10.80;;;;;;;22.44;33.45;100797.66;5053314;28;20025;-77
2022/04/12 10:01:22;;;;;;;22.42;10.35;;;;;;;22.75;33.29;100775.94;5047716;28;20404;-74
2022/04/12 10:03:52;;;;;;;26.02;10.20;;;;;;;23.02;32.91;100780.53;5045614;28;20034;-73
2022/04/12 10:06:20;;;;;;;32.40;10.95;;;;;;;22.48;33.72;100776.00;5034242;28;20057;-73
2022/04/12 10:08:51;;;;;;;26.60;10.52;;;;;;;22.13;34.40;100763.66;5052627;28;20465;-75
2022/04/12 10:11:17;;;;;;;27.73;10.90;;;;;;;21.81;35.15;100752.66;5055635;28;20056;-75
2022/04/12 10:13:42;;;;;;;32.45;10.85;;;;;;;21.45;35.59;100753.09;5037970;28;20029;-77
2022/04/12 10:16:09;;;;;;;37.20;11.45;;;;;;;21.16;36.83;100743.41;5034356;28;20108;-76
2022/04/12 10:18:34;;;;;;;24.63;10.68;;;;;;;20.72;37.64;100752.44;5032544;28;20040;-75
2022/04/12 10:21:00;;;;;;;30.10;10.98;;;;;;;20.38;38.27;100754.34;5053784;28;20029;-75
2022/04/12 10:23:27;;;;;;;28.85;10.23;;;;;;;19.87;40.27;100754.28;5058480;28;20089;-75
2022/04/12 10:25:56;;;;;;;28.42;10.57;;;;;;;19.71;40.03;100764.09;5059191;28;20487;-75
2022/04/12 10:28:22;;;;;;;24.30;10.45;;;;;;;19.27;40.74;100771.97;5058500;28;20029;-73
2022/04/12 10:30:48;;;;;;;27.15;10.57;;;;;;;18.52;42.36;100761.00;5054471;28;20029;-74
2022/04/12 10:33:19;;;;;;;23.40;10.40;;;;;;;18.37;42.92;100765.00;5038601;28;20401;-76
2022/04/12 10:35:44;;;;;;;31.90;12.30;;;;;;;18.02;43.88;100766.84;5045378;28;20469;-75
2022/04/12 10:38:16;;;;;;;23.90;11.25;;;;;;;17.92;44.13;100761.97;5038806;28;20053;-74
2022/04/12 10:40:46;;;;;;;20.85;10.38;;;;;;;17.85;44.83;100758.50;5043573;28;20443;-73
2022/04/12 10:43:13;;;;;;;28.85;10.95;;;;;;;18.01;44.78;100763.31;5038292;28;20169;-75
2022/04/12 10:45:46;;;;;;;20.42;10.60;;;;;;;18.02;44.63;100745.88;5046643;28;20033;-74
2022/04/12 10:48:21;;;;;;;23.38;9.90;;;;;;;18.40;44.81;100731.84;5054949;28;20650;-74
2022/04/12 10:50:47;;;;;;;18.92;10.27;;;;;;;18.65;43.68;100741.69;5062322;28;20127;-74
2022/04/12 10:53:12;;;;;;;30.55;11.07;;;;;;;18.76;43.46;100754.50;5043179;28;20486;-75
2022/04/12 10:55:42;;;;;;;21.50;9.65;;;;;;;18.77;43.53;100752.59;5043243;28;20040;-75
2022/04/12 10:58:31;;;;;;;24.48;10.23;;;;;;;18.84;43.83;100759.56;5041614;28;20029;-77
2022/04/12 11:00:56;;;;;;;25.75;11.00;;;;;;;18.69;44.03;100761.09;5026174;28;20013;-75
2022/04/12 11:03:40;;;;;;;21.35;10.30;;;;;;;18.68;43.95;100743.09;5050477;28;20552;-75
2022/04/12 11:06:22;;;;;;;32.55;10.07;;;;;;;18.43;44.53;100728.66;5052792;28;20374;-74
2022/04/12 11:09:11;;;;;;;23.23;9.90;;;;;;;18.11;45.09;100732.75;5055056;28;20040;-74
2022/04/12 11:11:40;;;;;;;19.67;9.68;;;;;;;17.98;45.75;100742.81;5044881;28;20056;-74
2022/04/12 11:14:28;;;;;;;20.10;9.75;;;;;;;18.18;45.54;100737.03;5056316;28;20032;-74
2022/04/12 11:17:07;;;;;;;19.02;9.27;;;;;;;18.45;45.12;100725.66;5052186;28;20036;-76
2022/04/12 11:19:44;;;;;;;31.27;10.73;;;;;;;18.99;43.88;100734.53;5037814;28;20045;-76